Main page
METAR-TAF:

METAR-TAF

Airports :

Kish International Airport

Kish, Iran

latitude: 26-31-36N, longitude: 053-58-54E, elevation: 30 m

Current weather observation

The report was made 52 minutes ago, at 00:00 UTC
Wind 14 kt from the West/Northwest
Temperature 23°C
Humidity 65%
Pressure 1015 hPa
Visibility: 5000 m
haze

METAR: OIBK 210000Z 30014KT 5000 HZ NSC 23/16 Q1015

Time: 04:22 (00:52 UTC)

Forecast

The report was made 1 hour and 52 minutes ago, at 23:00 UTC
Forecast valid from 21 at 00 UTC to 22 at 06 UTC
Wind 16 kt from the Northwest
Visibility: 7000 m
Few clouds at a height of 3500 ft
Temporary
from 21 at 03 UTC to 21 at 15 UTC
Wind 14 kt from the Northwest with gusts up to 23 kt
Probability 40%
between 50 and 00 UTC
sand

TAF: OIBK 202300Z 2100/2206 32008MPS 7000 FEW035 TEMPO 2103/2115 32007G12MPS PROB40 5000 SA

Weather observations and forecasts of more than 4000 airports (METAR and TAF reports).

The available stations are represented by yellow and red dots on the map.

Hover mouse over dot to see the name of the station.

Then click to see weather observations and forecasts.

To change the map : click on the green buttons with a black cross to zoom in, on the green button with a dash to zoom out, or on the green arrows for adjacent maps.


METAR-TAF: